Time;durP1;ratioP1;P1;durP2;ratioP2;P2;SDS_P1;SDS_P2;PMS_P1;PMS_P2;Temp;Humidity;BMP_temperature;BMP_pressure;BME280_temperature;BME280_humidity;BME280_pressure;Samples;Min_cycle;Max_cycle;Signal;HPM_P1;HPM_P2
2022/10/30 00:01:04;;;;;;;28.08;13.45;;;;;;;;;;5077293;28;20059;-67
2022/10/30 00:03:30;;;;;;;26.55;12.82;;;;;;;;;;5076304;28;20024;-65
2022/10/30 00:05:56;;;;;;;21.80;13.15;;;;;;;;;;5075429;28;20377;-64
2022/10/30 00:08:24;;;;;;;31.77;14.43;;;;;;;;;;5095413;28;20115;-65
2022/10/30 00:10:50;;;;;;;27.25;13.20;;;;;;;;;;5096011;28;20567;-66
2022/10/30 00:13:17;;;;;;;21.95;13.00;;;;;;;;;;5076870;28;20487;-65
2022/10/30 00:16:03;;;;;;;23.60;13.70;;;;;;;;;;5095597;28;20024;-66
2022/10/30 00:18:29;;;;;;;25.70;13.50;;;;;;;;;;5095412;28;20025;-64
2022/10/30 00:20:55;;;;;;;23.60;14.45;;;;;;;;;;5095749;28;20036;-65
2022/10/30 00:23:21;;;;;;;24.60;13.80;;;;;;;;;;5074324;28;20111;-65
2022/10/30 00:25:47;;;;;;;25.20;12.73;;;;;;;;;;5076033;28;20127;-65
2022/10/30 00:28:13;;;;;;;26.95;15.50;;;;;;;;;;5075577;28;20136;-61
2022/10/30 00:30:39;;;;;;;24.95;13.90;;;;;;;;;;5096093;28;20059;-65
2022/10/30 00:33:05;;;;;;;25.85;13.85;;;;;;;;;;5094775;28;20036;-62
2022/10/30 00:35:31;;;;;;;24.38;14.52;;;;;;;;;;5077536;28;20024;-66
2022/10/30 00:37:57;;;;;;;25.40;14.77;;;;;;;;;;5077690;28;20024;-66
2022/10/30 00:40:23;;;;;;;25.42;14.23;;;;;;;;;;5076912;28;20036;-67
2022/10/30 00:42:49;;;;;;;21.67;12.75;;;;;;;;;;5076245;28;20024;-65
2022/10/30 00:45:16;;;;;;;22.45;13.18;;;;;;;;;;5093931;28;20028;-66
2022/10/30 00:47:54;;;;;;;22.27;12.68;;;;;;;;;;5095568;28;20024;-66
2022/10/30 00:50:26;;;;;;;30.25;13.35;;;;;;;;;;5095148;28;20043;-65
2022/10/30 00:53:03;;;;;;;26.83;12.73;;;;;;;;;;5077354;28;20016;-66
2022/10/30 00:55:31;;;;;;;27.20;14.15;;;;;;;;;;5076918;28;20091;-63
2022/10/30 00:57:59;;;;;;;23.40;13.90;;;;;;;;;;5093145;28;20495;-66
2022/10/30 01:00:27;;;;;;;26.30;12.35;;;;;;;;;;5094608;28;20032;-65
2022/10/30 01:02:53;;;;;;;28.20;13.63;;;;;;;;;;5094569;28;20480;-66
2022/10/30 01:05:20;;;;;;;30.55;13.77;;;;;;;;;;5065796;28;20430;-65
2022/10/30 01:07:46;;;;;;;25.35;14.85;;;;;;;;;;5077838;28;20020;-65
2022/10/30 01:10:13;;;;;;;26.95;13.65;;;;;;;;;;5114776;28;20030;-65
2022/10/30 01:12:39;;;;;;;28.23;13.73;;;;;;;;;;5114971;28;20020;-66
2022/10/30 01:15:06;;;;;;;22.90;13.43;;;;;;;;;;5113792;28;20016;-65
2022/10/30 01:17:37;;;;;;;24.50;14.25;;;;;;;;;;5113900;28;20055;-66
2022/10/30 01:20:16;;;;;;;25.17;12.95;;;;;;;;;;5114397;28;20416;-65
2022/10/30 01:22:51;;;;;;;27.10;13.55;;;;;;;;;;5096258;28;20024;-64
2022/10/30 01:25:23;;;;;;;22.73;12.15;;;;;;;;;;5095411;28;20644;-64
2022/10/30 01:28:12;;;;;;;23.60;12.48;;;;;;;;;;5096429;28;20036;-65
2022/10/30 01:30:38;;;;;;;27.77;12.50;;;;;;;;;;5073572;28;20075;-65
2022/10/30 01:33:04;;;;;;;21.58;12.23;;;;;;;;;;5072857;28;20102;-65
2022/10/30 01:35:34;;;;;;;23.48;12.55;;;;;;;;;;5073272;28;20074;-65
2022/10/30 01:38:07;;;;;;;24.55;11.85;;;;;;;;;;5055491;28;20021;-64
2022/10/30 01:40:33;;;;;;;23.58;12.07;;;;;;;;;;5055142;28;20063;-64
2022/10/30 01:42:59;;;;;;;19.88;12.18;;;;;;;;;;5062493;28;20016;-64
2022/10/30 01:45:44;;;;;;;21.42;11.63;;;;;;;;;;5092940;28;20046;-65
2022/10/30 01:48:29;;;;;;;21.67;12.75;;;;;;;;;;5093086;28;20468;-65
2022/10/30 01:51:13;;;;;;;21.60;12.60;;;;;;;;;;5093069;28;20024;-66
2022/10/30 01:53:45;;;;;;;22.50;12.23;;;;;;;;;;5074098;28;20024;-65
2022/10/30 01:56:30;;;;;;;27.13;12.93;;;;;;;;;;5074798;28;20430;-64
2022/10/30 01:58:56;;;;;;;23.77;13.20;;;;;;;;;;5090934;28;20499;-66
2022/10/30 02:01:23;;;;;;;23.95;13.27;;;;;;;;;;5092639;28;20020;-65
2022/10/30 02:03:49;;;;;;;24.77;13.63;;;;;;;;;;5092338;28;20061;-65
2022/10/30 02:06:16;;;;;;;23.15;12.65;;;;;;;;;;5092783;28;20038;-66
2022/10/30 02:08:42;;;;;;;25.05;13.20;;;;;;;;;;5092468;28;20032;-65
2022/10/30 02:11:09;;;;;;;30.95;13.02;;;;;;;;;;5074452;28;20024;-65
2022/10/30 02:13:36;;;;;;;27.00;12.95;;;;;;;;;;5074197;28;20085;-66
2022/10/30 02:16:02;;;;;;;23.40;12.63;;;;;;;;;;5092713;28;20024;-65
2022/10/30 02:18:28;;;;;;;25.38;12.82;;;;;;;;;;5074804;28;20024;-66
2022/10/30 02:20:55;;;;;;;24.90;13.35;;;;;;;;;;5074801;28;20510;-66
2022/10/30 02:23:21;;;;;;;22.63;12.48;;;;;;;;;;5092063;28;20032;-66
2022/10/30 02:25:47;;;;;;;24.52;12.52;;;;;;;;;;5092958;28;20023;-66
2022/10/30 02:28:13;;;;;;;22.45;13.10;;;;;;;;;;5072412;28;20025;-64
2022/10/30 02:30:42;;;;;;;26.48;12.90;;;;;;;;;;5092241;28;20361;-66
2022/10/30 02:33:08;;;;;;;21.30;12.60;;;;;;;;;;5091319;28;20396;-65
2022/10/30 02:35:34;;;;;;;25.85;12.32;;;;;;;;;;5092610;28;20032;-66
2022/10/30 02:38:01;;;;;;;23.52;12.05;;;;;;;;;;5092708;28;20024;-66
2022/10/30 02:40:27;;;;;;;21.38;12.35;;;;;;;;;;5092407;28;20035;-64
2022/10/30 02:42:53;;;;;;;21.30;12.38;;;;;;;;;;5074472;28;20028;-63
2022/10/30 02:45:20;;;;;;;25.17;12.77;;;;;;;;;;5091899;28;20028;-64
2022/10/30 02:47:46;;;;;;;23.40;12.25;;;;;;;;;;5074663;28;20028;-64
2022/10/30 02:50:12;;;;;;;22.50;12.50;;;;;;;;;;5074620;28;20040;-64
2022/10/30 02:52:38;;;;;;;20.35;12.27;;;;;;;;;;5074611;28;20024;-64
2022/10/30 02:55:04;;;;;;;25.17;13.32;;;;;;;;;;5092116;28;20020;-64
2022/10/30 02:57:30;;;;;;;23.98;13.40;;;;;;;;;;5074294;28;20021;-64
2022/10/30 02:59:57;;;;;;;27.52;12.90;;;;;;;;;;5072593;28;20503;-64
2022/10/30 03:02:23;;;;;;;30.50;12.02;;;;;;;;;;5091831;28;20055;-65
2022/10/30 03:04:48;;;;;;;23.60;12.52;;;;;;;;;;5067772;28;20013;-64
2022/10/30 03:07:15;;;;;;;21.45;11.68;;;;;;;;;;5074473;28;20036;-65
2022/10/30 03:09:41;;;;;;;23.98;13.02;;;;;;;;;;5058692;28;20268;-64
2022/10/30 03:12:07;;;;;;;22.67;12.38;;;;;;;;;;5076267;28;20040;-64
2022/10/30 03:14:33;;;;;;;21.63;12.13;;;;;;;;;;5075407;28;20024;-64
2022/10/30 03:16:59;;;;;;;21.00;13.13;;;;;;;;;;5075813;28;20499;-64
2022/10/30 03:19:25;;;;;;;24.48;12.27;;;;;;;;;;5058058;28;20025;-65
2022/10/30 03:21:50;;;;;;;21.70;12.85;;;;;;;;;;5076151;28;20098;-64
2022/10/30 03:24:16;;;;;;;22.02;12.77;;;;;;;;;;5075600;28;20020;-64
2022/10/30 03:26:42;;;;;;;21.92;12.43;;;;;;;;;;5076142;28;20451;-65
2022/10/30 03:29:08;;;;;;;23.00;12.07;;;;;;;;;;5077137;28;20086;-64
2022/10/30 03:31:34;;;;;;;27.92;12.95;;;;;;;;;;5057964;28;20033;-65
2022/10/30 03:34:00;;;;;;;20.75;12.18;;;;;;;;;;5056915;28;20123;-67
2022/10/30 03:36:26;;;;;;;22.33;12.63;;;;;;;;;;5057804;28;20123;-65
2022/10/30 03:38:52;;;;;;;21.80;12.32;;;;;;;;;;5075415;28;20029;-66
2022/10/30 03:41:18;;;;;;;21.08;12.30;;;;;;;;;;5075573;28;20092;-65
2022/10/30 03:43:44;;;;;;;23.70;13.02;;;;;;;;;;5074978;28;20536;-65
2022/10/30 03:46:10;;;;;;;24.77;12.73;;;;;;;;;;5075490;28;20054;-65
2022/10/30 03:48:36;;;;;;;24.88;13.13;;;;;;;;;;5075375;28;20025;-64
2022/10/30 03:51:02;;;;;;;23.70;12.40;;;;;;;;;;5075351;28;20044;-64
2022/10/30 03:53:29;;;;;;;20.95;11.75;;;;;;;;;;5074684;28;20021;-64
2022/10/30 03:56:03;;;;;;;23.50;12.82;;;;;;;;;;5075242;28;20036;-64
2022/10/30 03:58:29;;;;;;;24.77;12.68;;;;;;;;;;5075176;28;20481;-64
2022/10/30 04:01:00;;;;;;;21.77;12.77;;;;;;;;;;5075931;28;20435;-65
2022/10/30 04:03:26;;;;;;;23.02;12.15;;;;;;;;;;5073917;28;20033;-65
2022/10/30 04:05:53;;;;;;;22.33;13.38;;;;;;;;;;5073802;28;20035;-64
2022/10/30 04:08:19;;;;;;;23.70;12.55;;;;;;;;;;5115564;28;20107;-64
2022/10/30 04:10:46;;;;;;;20.98;11.57;;;;;;;;;;5077192;28;20060;-65
2022/10/30 04:13:13;;;;;;;27.55;13.02;;;;;;;;;;5056665;28;20066;-65
2022/10/30 04:15:39;;;;;;;26.80;12.52;;;;;;;;;;5074901;28;20511;-64
2022/10/30 04:18:05;;;;;;;25.85;12.63;;;;;;;;;;5074359;28;20024;-65
2022/10/30 04:20:31;;;;;;;26.42;12.43;;;;;;;;;;5074655;28;20097;-64
2022/10/30 04:23:04;;;;;;;22.55;12.35;;;;;;;;;;5074558;28;20024;-63
2022/10/30 04:25:31;;;;;;;22.70;12.82;;;;;;;;;;5065110;28;20070;-64
2022/10/30 04:27:57;;;;;;;21.13;12.93;;;;;;;;;;5092854;28;20064;-62
2022/10/30 04:30:26;;;;;;;24.48;12.45;;;;;;;;;;5074765;28;20119;-65
2022/10/30 04:32:54;;;;;;;24.30;12.60;;;;;;;;;;5085598;28;20021;-65
2022/10/30 04:35:21;;;;;;;23.75;12.77;;;;;;;;;;5074469;28;20500;-65
2022/10/30 04:38:00;;;;;;;25.55;14.02;;;;;;;;;;5057028;28;20054;-65
2022/10/30 04:40:27;;;;;;;22.77;13.20;;;;;;;;;;5063462;22;20047;-64
2022/10/30 04:42:53;;;;;;;26.67;12.45;;;;;;;;;;5034146;28;20238;-64
2022/10/30 04:45:19;;;;;;;22.75;13.00;;;;;;;;;;5051491;28;20020;-64
2022/10/30 04:47:46;;;;;;;26.60;12.48;;;;;;;;;;5052037;28;20021;-64
2022/10/30 04:50:12;;;;;;;24.13;12.32;;;;;;;;;;5052017;28;20090;-65
2022/10/30 04:52:38;;;;;;;26.70;13.27;;;;;;;;;;5052012;28;20461;-64
2022/10/30 04:55:04;;;;;;;22.15;13.18;;;;;;;;;;5050177;28;20087;-64
2022/10/30 04:57:30;;;;;;;24.73;14.10;;;;;;;;;;5050722;28;20080;-64
2022/10/30 04:59:57;;;;;;;23.17;13.20;;;;;;;;;;5030835;28;20028;-64
2022/10/30 05:02:23;;;;;;;25.70;12.70;;;;;;;;;;5016658;28;20512;-64
2022/10/30 05:04:49;;;;;;;25.63;13.75;;;;;;;;;;5009981;28;20108;-64
2022/10/30 05:07:15;;;;;;;22.10;12.80;;;;;;;;;;5012136;28;20060;-64
2022/10/30 05:09:41;;;;;;;22.77;13.50;;;;;;;;;;5010609;28;20100;-63
2022/10/30 05:12:07;;;;;;;27.98;13.20;;;;;;;;;;5010769;28;20085;-64
2022/10/30 05:14:33;;;;;;;24.33;13.38;;;;;;;;;;5011202;28;20037;-64
2022/10/30 05:16:59;;;;;;;30.50;13.43;;;;;;;;;;5011675;28;20030;-65
2022/10/30 05:19:25;;;;;;;23.13;12.80;;;;;;;;;;5011563;28;20022;-66
2022/10/30 05:21:51;;;;;;;28.17;13.38;;;;;;;;;;5011713;28;20466;-66
2022/10/30 05:24:17;;;;;;;24.83;12.95;;;;;;;;;;5010913;28;20056;-65
2022/10/30 05:26:43;;;;;;;26.42;14.02;;;;;;;;;;5029216;28;20030;-66
2022/10/30 05:29:09;;;;;;;27.23;13.35;;;;;;;;;;5031153;28;20397;-66
2022/10/30 05:31:35;;;;;;;26.63;13.40;;;;;;;;;;5029678;28;20367;-66
2022/10/30 05:34:01;;;;;;;24.98;13.15;;;;;;;;;;5029275;28;20076;-66
2022/10/30 05:36:27;;;;;;;25.33;12.90;;;;;;;;;;5030699;28;20045;-65
2022/10/30 05:38:53;;;;;;;24.92;13.55;;;;;;;;;;5030992;28;20113;-64
2022/10/30 05:41:19;;;;;;;22.73;12.40;;;;;;;;;;5031057;28;20029;-65
2022/10/30 05:43:45;;;;;;;23.17;11.85;;;;;;;;;;5030470;28;20395;-65
2022/10/30 05:46:11;;;;;;;23.00;13.20;;;;;;;;;;5031136;28;20034;-66
2022/10/30 05:48:37;;;;;;;29.25;12.57;;;;;;;;;;5030985;28;20099;-65
2022/10/30 05:51:05;;;;;;;24.05;11.98;;;;;;;;;;5030905;28;20557;-63
2022/10/30 05:53:31;;;;;;;23.88;12.63;;;;;;;;;;5030306;28;20021;-64
2022/10/30 05:55:57;;;;;;;23.55;12.90;;;;;;;;;;5030949;28;20029;-66
2022/10/30 05:58:23;;;;;;;21.90;12.07;;;;;;;;;;5031005;28;20021;-65
2022/10/30 06:00:49;;;;;;;26.83;13.15;;;;;;;;;;5048098;28;20021;-65
2022/10/30 06:03:15;;;;;;;22.33;12.85;;;;;;;;;;5025722;28;20053;-65
2022/10/30 06:05:43;;;;;;;26.08;13.10;;;;;;;;;;5016557;28;20030;-65
2022/10/30 06:08:09;;;;;;;27.55;13.10;;;;;;;;;;5030813;28;20649;-64
2022/10/30 06:10:36;;;;;;;22.52;11.93;;;;;;;;;;5030482;28;20029;-64
2022/10/30 06:13:03;;;;;;;28.52;13.00;;;;;;;;;;5030021;28;20021;-63
2022/10/30 06:15:30;;;;;;;24.27;12.77;;;;;;;;;;5032631;28;20492;-69
2022/10/30 06:17:56;;;;;;;21.80;12.20;;;;;;;;;;5040811;28;20091;-65
2022/10/30 06:20:24;;;;;;;24.73;12.38;;;;;;;;;;5030329;28;20470;-65
2022/10/30 06:22:59;;;;;;;23.67;12.57;;;;;;;;;;5030477;28;20030;-64
2022/10/30 06:25:25;;;;;;;22.70;12.27;;;;;;;;;;5028301;28;20027;-65
2022/10/30 06:27:51;;;;;;;23.60;12.13;;;;;;;;;;5029342;28;20382;-65
2022/10/30 06:30:18;;;;;;;21.63;12.32;;;;;;;;;;5030334;28;20018;-65
2022/10/30 06:32:44;;;;;;;24.60;13.32;;;;;;;;;;5016179;28;20028;-64
2022/10/30 06:35:10;;;;;;;23.17;13.38;;;;;;;;;;5008783;28;20033;-64
2022/10/30 06:37:38;;;;;;;26.50;12.65;;;;;;;;;;5010641;28;20124;-65
2022/10/30 06:40:05;;;;;;;25.60;13.40;;;;;;;;;;5008976;28;20049;-65
2022/10/30 06:42:31;;;;;;;27.30;13.82;;;;;;;;;;5008890;28;20429;-66
2022/10/30 06:44:57;;;;;;;29.33;13.90;;;;;;;;;;5009804;28;20150;-65
2022/10/30 06:47:23;;;;;;;21.25;12.35;;;;;;;;;;5010397;28;20105;-65
2022/10/30 06:49:49;;;;;;;25.00;12.95;;;;;;;;;;5010427;28;20091;-65
2022/10/30 06:52:15;;;;;;;23.23;13.40;;;;;;;;;;5010497;28;20060;-65
2022/10/30 06:54:41;;;;;;;23.23;13.13;;;;;;;;;;5009966;28;20649;-66
2022/10/30 06:57:07;;;;;;;25.33;12.85;;;;;;;;;;5010416;28;20030;-65
2022/10/30 06:59:33;;;;;;;25.67;13.27;;;;;;;;;;5010350;28;20380;-65
2022/10/30 07:01:59;;;;;;;25.75;12.85;;;;;;;;;;5015660;28;20017;-65
2022/10/30 07:04:25;;;;;;;26.33;13.50;;;;;;;;;;5026791;28;20065;-64
2022/10/30 07:06:51;;;;;;;23.60;13.60;;;;;;;;;;5030025;28;20033;-62
2022/10/30 07:09:17;;;;;;;27.88;13.57;;;;;;;;;;5029905;28;20032;-61
2022/10/30 07:11:44;;;;;;;24.83;13.07;;;;;;;;;;5028734;28;20571;-62
2022/10/30 07:14:11;;;;;;;28.17;14.65;;;;;;;;;;5029264;28;20037;-61
2022/10/30 07:16:37;;;;;;;25.83;13.00;;;;;;;;;;5028488;28;20021;-62
2022/10/30 07:19:03;;;;;;;25.33;13.00;;;;;;;;;;5029957;28;20115;-62
2022/10/30 07:21:30;;;;;;;27.63;13.07;;;;;;;;;;5028502;28;20359;-61
2022/10/30 07:23:56;;;;;;;24.80;13.07;;;;;;;;;;5029113;28;20026;-61
2022/10/30 07:26:22;;;;;;;23.63;13.30;;;;;;;;;;5037075;28;20029;-62
2022/10/30 07:28:48;;;;;;;21.75;13.32;;;;;;;;;;5049491;28;20082;-62
2022/10/30 07:31:14;;;;;;;22.55;13.52;;;;;;;;;;5048490;28;20488;-62
2022/10/30 07:33:40;;;;;;;22.40;13.65;;;;;;;;;;5019128;28;20034;-62
2022/10/30 07:36:06;;;;;;;29.63;15.13;;;;;;;;;;5021229;28;20482;-63
2022/10/30 07:38:32;;;;;;;28.98;14.80;;;;;;;;;;5028586;28;20029;-61
2022/10/30 07:40:58;;;;;;;24.88;15.10;;;;;;;;;;5038259;28;20401;-62
2022/10/30 07:43:24;;;;;;;35.67;16.40;;;;;;;;;;5038638;28;20037;-62
2022/10/30 07:45:50;;;;;;;28.33;14.95;;;;;;;;;;5041893;28;20029;-61
2022/10/30 07:48:16;;;;;;;24.23;14.57;;;;;;;;;;5041844;28;20017;-62
2022/10/30 07:50:42;;;;;;;28.35;13.43;;;;;;;;;;5037524;28;20445;-62
2022/10/30 07:53:08;;;;;;;27.42;13.55;;;;;;;;;;5032736;28;20017;-64
2022/10/30 07:55:34;;;;;;;24.25;13.45;;;;;;;;;;5033596;28;20029;-66
2022/10/30 07:58:00;;;;;;;25.75;12.73;;;;;;;;;;5033243;28;20071;-66
2022/10/30 08:00:26;;;;;;;23.90;13.15;;;;;;;;;;5033647;28;20013;-65
2022/10/30 08:02:55;;;;;;;26.95;14.63;;;;;;;;;;5031170;28;20026;-66
2022/10/30 08:05:21;;;;;;;23.15;12.63;;;;;;;;;;5032909;28;20033;-61
2022/10/30 08:07:47;;;;;;;22.67;13.73;;;;;;;;;;5033449;28;20369;-59
2022/10/30 08:10:14;;;;;;;24.83;13.77;;;;;;;;;;5033188;28;20034;-58
2022/10/30 08:12:42;;;;;;;25.52;13.18;;;;;;;;;;5033040;28;20045;-56
2022/10/30 08:15:09;;;;;;;24.27;12.88;;;;;;;;;;5032315;28;20017;-59
2022/10/30 08:17:41;;;;;;;22.45;12.68;;;;;;;;;;5031511;28;20026;-59
2022/10/30 08:20:07;;;;;;;27.98;13.18;;;;;;;;;;5032902;28;20103;-58
2022/10/30 08:22:33;;;;;;;26.23;13.40;;;;;;;;;;5033029;28;20487;-61
2022/10/30 08:24:59;;;;;;;21.88;12.50;;;;;;;;;;5038883;28;20108;-64
2022/10/30 08:27:25;;;;;;;23.63;13.00;;;;;;;;;;5044384;28;20400;-65
2022/10/30 08:29:51;;;;;;;25.42;13.68;;;;;;;;;;5052746;28;20029;-66
2022/10/30 08:32:17;;;;;;;23.08;13.00;;;;;;;;;;5041305;28;20018;-65
2022/10/30 08:34:43;;;;;;;24.80;13.52;;;;;;;;;;5012239;28;20478;-65
2022/10/30 08:37:09;;;;;;;28.20;12.65;;;;;;;;;;5012626;28;20037;-65
2022/10/30 08:39:35;;;;;;;25.75;12.80;;;;;;;;;;5012530;28;20462;-65
2022/10/30 08:42:01;;;;;;;27.23;12.75;;;;;;;;;;5012715;28;20026;-65
2022/10/30 08:44:27;;;;;;;22.05;12.75;;;;;;;;;;5011906;28;20103;-67
2022/10/30 08:46:53;;;;;;;25.27;13.32;;;;;;;;;;5012591;28;20549;-66
2022/10/30 08:49:19;;;;;;;22.20;12.90;;;;;;;;;;5012207;28;20022;-66
2022/10/30 08:51:45;;;;;;;22.08;13.05;;;;;;;;;;5012285;28;20030;-67
2022/10/30 08:54:11;;;;;;;28.35;13.35;;;;;;;;;;5011518;28;20482;-67
2022/10/30 08:56:37;;;;;;;23.65;13.20;;;;;;;;;;5012931;28;20512;-67
2022/10/30 08:59:03;;;;;;;23.85;12.63;;;;;;;;;;5037617;28;20033;-69
2022/10/30 09:01:29;;;;;;;22.70;13.63;;;;;;;;;;5032867;28;20054;-67
2022/10/30 09:03:55;;;;;;;26.15;13.25;;;;;;;;;;5011157;28;20018;-67
2022/10/30 09:06:21;;;;;;;27.48;12.05;;;;;;;;;;5011966;28;20037;-67
2022/10/30 09:08:47;;;;;;;26.52;13.63;;;;;;;;;;5010667;28;20188;-67
2022/10/30 09:11:13;;;;;;;24.73;14.40;;;;;;;;;;5012074;28;20371;-67
2022/10/30 09:13:39;;;;;;;22.25;12.70;;;;;;;;;;5011392;28;20034;-67
2022/10/30 09:16:05;;;;;;;24.42;13.32;;;;;;;;;;5012647;28;20025;-67
2022/10/30 09:18:31;;;;;;;21.13;12.52;;;;;;;;;;5029090;28;20026;-65
2022/10/30 09:20:58;;;;;;;22.08;12.65;;;;;;;;;;5031398;28;20049;-65
2022/10/30 09:23:24;;;;;;;23.95;12.75;;;;;;;;;;5030549;28;20041;-65
2022/10/30 09:25:50;;;;;;;25.35;12.00;;;;;;;;;;5031347;28;20156;-64
2022/10/30 09:28:16;;;;;;;28.67;13.57;;;;;;;;;;5031799;28;20072;-65
2022/10/30 09:30:42;;;;;;;23.58;11.63;;;;;;;;;;5031482;28;20159;-65
2022/10/30 09:33:09;;;;;;;22.33;11.95;;;;;;;;;;5030730;28;20045;-66
2022/10/30 09:35:35;;;;;;;20.98;12.85;;;;;;;;;;5030004;28;20029;-65
2022/10/30 09:38:01;;;;;;;25.00;12.07;;;;;;;;;;5032156;28;20139;-65
2022/10/30 09:41:00;;;;;;;25.92;13.57;;;;;;;;;;5031899;28;20064;-65
2022/10/30 09:43:44;;;;;;;27.20;13.07;;;;;;;;;;5008669;28;20037;-66
2022/10/30 09:46:10;;;;;;;22.45;12.10;;;;;;;;;;5030702;28;20124;-65
2022/10/30 09:48:52;;;;;;;22.50;12.43;;;;;;;;;;5031288;28;20504;-64
2022/10/30 09:51:18;;;;;;;24.50;13.40;;;;;;;;;;5031749;28;20029;-64
2022/10/30 09:53:51;;;;;;;32.58;14.23;;;;;;;;;;5030556;28;20107;-64
2022/10/30 09:56:35;;;;;;;23.17;12.55;;;;;;;;;;5031296;28;20038;-64
2022/10/30 09:59:13;;;;;;;24.55;12.57;;;;;;;;;;5029940;28;20025;-64
2022/10/30 10:01:39;;;;;;;23.42;12.20;;;;;;;;;;5030969;28;20036;-64
2022/10/30 10:04:17;;;;;;;21.45;11.63;;;;;;;;;;5030512;28;20029;-65
2022/10/30 10:06:46;;;;;;;27.42;12.48;;;;;;;;;;5030932;28;20163;-64
2022/10/30 10:09:16;;;;;;;21.20;11.60;;;;;;;;;;5030856;28;20095;-64
2022/10/30 10:11:45;;;;;;;24.85;13.82;;;;;;;;;;5031004;28;20552;-65
2022/10/30 10:14:11;;;;;;;28.38;12.93;;;;;;;;;;5029151;28;20021;-64
2022/10/30 10:16:38;;;;;;;24.42;12.63;;;;;;;;;;5028108;28;20056;-63
2022/10/30 10:19:20;;;;;;;21.35;12.00;;;;;;;;;;5030892;28;20022;-65
2022/10/30 10:21:50;;;;;;;24.58;13.23;;;;;;;;;;5030961;28;20041;-65
2022/10/30 10:24:20;;;;;;;23.85;12.57;;;;;;;;;;5030128;28;20024;-65
2022/10/30 10:26:46;;;;;;;24.33;12.77;;;;;;;;;;5030814;28;20025;-65
2022/10/30 10:29:21;;;;;;;22.73;12.65;;;;;;;;;;5030825;28;20591;-61
2022/10/30 10:32:07;;;;;;;22.13;11.77;;;;;;;;;;5030778;28;20041;-66
2022/10/30 10:34:35;;;;;;;21.90;12.50;;;;;;;;;;5028289;28;20025;-65
2022/10/30 10:37:16;;;;;;;23.85;12.55;;;;;;;;;;5030498;28;20104;-65
2022/10/30 10:39:42;;;;;;;22.48;13.07;;;;;;;;;;5055658;22;20040;-62
2022/10/30 10:42:16;;;;;;;28.33;13.65;;;;;;;;;;5044956;28;20401;-62
2022/10/30 10:45:01;;;;;;;24.30;12.23;;;;;;;;;;5051418;28;20049;-61
2022/10/30 10:47:27;;;;;;;23.48;12.60;;;;;;;;;;5034276;28;20150;-62
2022/10/30 10:49:56;;;;;;;22.25;12.77;;;;;;;;;;5052099;28;20048;-59
2022/10/30 10:52:35;;;;;;;30.23;14.43;;;;;;;;;;5033938;28;20480;-62
2022/10/30 10:55:04;;;;;;;22.25;13.38;;;;;;;;;;5031167;28;20366;-61
2022/10/30 10:57:34;;;;;;;25.52;14.70;;;;;;;;;;5031993;28;20109;-62
2022/10/30 11:00:05;;;;;;;23.80;14.23;;;;;;;;;;5032030;28;20022;-62
2022/10/30 11:02:35;;;;;;;21.85;13.25;;;;;;;;;;5014509;28;20048;-63
2022/10/30 11:05:07;;;;;;;21.45;13.23;;;;;;;;;;5031705;28;20022;-67
2022/10/30 11:07:45;;;;;;;24.52;13.52;;;;;;;;;;5033890;28;20029;-67
2022/10/30 11:10:13;;;;;;;23.02;15.93;;;;;;;;;;5034394;28;20101;-68
2022/10/30 11:12:39;;;;;;;28.02;16.33;;;;;;;;;;5035759;28;20092;-68
2022/10/30 11:15:23;;;;;;;21.73;14.10;;;;;;;;;;5050739;28;20428;-67
2022/10/30 11:18:04;;;;;;;24.52;14.15;;;;;;;;;;5051832;28;20053;-67
2022/10/30 11:20:48;;;;;;;21.67;13.57;;;;;;;;;;5036417;28;20398;-67
2022/10/30 11:23:33;;;;;;;21.63;13.55;;;;;;;;;;5051190;28;20025;-67
2022/10/30 11:25:59;;;;;;;24.48;15.23;;;;;;;;;;5029525;28;20030;-67
2022/10/30 11:28:36;;;;;;;26.25;14.50;;;;;;;;;;5017817;28;20084;-67
2022/10/30 11:31:17;;;;;;;21.17;12.68;;;;;;;;;;5048623;28;20025;-67
2022/10/30 11:33:43;;;;;;;21.27;14.60;;;;;;;;;;5034961;28;20039;-67
2022/10/30 11:36:10;;;;;;;24.13;14.60;;;;;;;;;;5017762;28;20136;-67
2022/10/30 11:38:36;;;;;;;24.15;13.77;;;;;;;;;;5017721;28;20022;-67
2022/10/30 11:41:02;;;;;;;24.70;14.50;;;;;;;;;;5017309;28;20033;-66
2022/10/30 11:43:28;;;;;;;22.83;13.90;;;;;;;;;;5034718;28;20036;-66
2022/10/30 11:45:54;;;;;;;21.58;14.27;;;;;;;;;;5018006;28;20025;-67
2022/10/30 11:48:29;;;;;;;22.52;13.50;;;;;;;;;;5017737;28;20029;-67
2022/10/30 11:50:57;;;;;;;20.90;13.32;;;;;;;;;;5035074;28;20045;-67
2022/10/30 11:53:34;;;;;;;19.58;13.00;;;;;;;;;;5034982;28;20048;-66
2022/10/30 11:56:01;;;;;;;22.88;13.02;;;;;;;;;;5044549;28;20032;-67
2022/10/30 11:58:27;;;;;;;24.57;13.80;;;;;;;;;;5034910;28;20029;-67
2022/10/30 12:01:04;;;;;;;19.23;12.77;;;;;;;;;;5034779;28;20038;-67
2022/10/30 12:03:34;;;;;;;21.13;13.73;;;;;;;;;;5016438;28;20105;-68
2022/10/30 12:06:36;;;;;;;28.08;14.48;;;;;;;;;;5016995;28;20064;-68
2022/10/30 12:09:19;;;;;;;22.38;14.10;;;;;;;;;;4954717;28;20039;-67
2022/10/30 12:11:45;;;;;;;20.97;13.67;;;;;;;;;;4327379;28;10000753;-66
2022/10/30 12:14:17;;;;;;;24.67;13.60;;;;;;;;;;5013571;28;20272;-67
2022/10/30 12:17:01;;;;;;;22.13;13.25;;;;;;;;;;5014316;28;20033;-67
2022/10/30 12:19:29;;;;;;;24.00;12.93;;;;;;;;;;5008537;28;20037;-66
2022/10/30 12:22:00;;;;;;;23.80;13.43;;;;;;;;;;5032406;28;20017;-67
2022/10/30 12:24:34;;;;;;;22.23;13.23;;;;;;;;;;5030796;28;20037;-66
2022/10/30 12:27:01;;;;;;;22.52;12.95;;;;;;;;;;5018826;28;20093;-67
2022/10/30 12:29:37;;;;;;;22.97;12.53;;;;;;;;;;5012158;28;20033;-67
2022/10/30 12:32:07;;;;;;;23.55;13.93;;;;;;;;;;5031108;28;20057;-67
2022/10/30 12:34:55;;;;;;;28.65;13.15;;;;;;;;;;5027266;28;20032;-67
2022/10/30 12:37:24;;;;;;;21.75;13.43;;;;;;;;;;5033592;28;20037;-68
2022/10/30 12:39:50;;;;;;;24.98;13.45;;;;;;;;;;5050563;28;20666;-67
2022/10/30 12:42:17;;;;;;;22.75;13.15;;;;;;;;;;5051423;28;20539;-66
2022/10/30 12:45:03;;;;;;;24.02;13.40;;;;;;;;;;5048665;28;20026;-68
2022/10/30 12:47:47;;;;;;;24.90;13.15;;;;;;;;;;5000234;28;20095;-68
2022/10/30 12:50:18;;;;;;;22.30;12.57;;;;;;;;;;5029695;28;20080;-68
2022/10/30 12:52:47;;;;;;;21.80;12.30;;;;;;;;;;5013071;28;20095;-68
2022/10/30 12:55:32;;;;;;;23.30;12.80;;;;;;;;;;5029853;28;20095;-68
2022/10/30 12:58:02;;;;;;;22.77;13.35;;;;;;;;;;5012825;28;20029;-67
2022/10/30 13:00:30;;;;;;;25.92;14.07;;;;;;;;;;5030383;28;20033;-67
2022/10/30 13:02:58;;;;;;;21.38;12.65;;;;;;;;;;5013261;28;20032;-68
2022/10/30 13:05:28;;;;;;;20.90;12.50;;;;;;;;;;5013254;28;20490;-69
2022/10/30 13:08:14;;;;;;;21.85;13.40;;;;;;;;;;5015164;28;20026;-69
2022/10/30 13:10:49;;;;;;;20.83;12.63;;;;;;;;;;5012028;28;20481;-68
2022/10/30 13:13:18;;;;;;;27.35;13.15;;;;;;;;;;5012102;28;20540;-68
2022/10/30 13:15:46;;;;;;;23.60;13.05;;;;;;;;;;5033441;28;20075;-68
2022/10/30 13:18:19;;;;;;;24.17;13.50;;;;;;;;;;5029703;28;20025;-69
2022/10/30 13:21:05;;;;;;;22.17;13.18;;;;;;;;;;5012086;28;20029;-68
2022/10/30 13:23:39;;;;;;;20.60;14.25;;;;;;;;;;5022677;28;20030;-67
2022/10/30 13:26:35;;;;;;;22.70;12.95;;;;;;;;;;5014980;28;20021;-67
2022/10/30 13:29:05;;;;;;;24.70;13.68;;;;;;;;;;5008649;28;20029;-67
2022/10/30 13:31:31;;;;;;;22.35;13.20;;;;;;;;;;5014881;28;20030;-68
2022/10/30 13:34:02;;;;;;;21.30;12.93;;;;;;;;;;5014487;28;20477;-68
2022/10/30 13:36:31;;;;;;;20.92;13.52;;;;;;;;;;5014744;28;20076;-69
2022/10/30 13:39:15;;;;;;;20.35;12.30;;;;;;;;;;5030416;28;20017;-68
2022/10/30 13:42:00;;;;;;;24.85;15.73;;;;;;;;;;5014760;28;20045;-68
2022/10/30 13:44:35;;;;;;;23.02;14.30;;;;;;;;;;5034996;28;20047;-67
2022/10/30 13:47:16;;;;;;;24.17;15.25;;;;;;;;;;5052781;28;20025;-68
2022/10/30 13:49:51;;;;;;;21.10;12.88;;;;;;;;;;5052582;28;20025;-68
2022/10/30 13:52:19;;;;;;;29.55;14.35;;;;;;;;;;5052522;28;20108;-67
2022/10/30 13:54:51;;;;;;;22.50;14.38;;;;;;;;;;5034169;28;20033;-67
2022/10/30 13:57:27;;;;;;;23.98;13.60;;;;;;;;;;5052581;28;20033;-67
2022/10/30 14:00:01;;;;;;;22.92;13.20;;;;;;;;;;5034912;28;20393;-66
2022/10/30 14:02:30;;;;;;;27.67;14.43;;;;;;;;;;5036670;28;20056;-66
2022/10/30 14:05:14;;;;;;;22.08;13.50;;;;;;;;;;5014294;28;20017;-67
2022/10/30 14:07:40;;;;;;;25.10;13.93;;;;;;;;;;4680987;28;9999638;-66
2022/10/30 14:10:07;;;;;;;24.25;13.65;;;;;;;;;;5030008;28;20029;-66
2022/10/30 14:13:06;;;;;;;25.35;13.85;;;;;;;;;;5037994;28;20021;-66
2022/10/30 14:15:38;;;;;;;25.83;13.90;;;;;;;;;;4978051;28;20102;-68
2022/10/30 14:18:13;;;;;;;22.35;12.75;;;;;;;;;;5037018;28;20021;-67
2022/10/30 14:20:39;;;;;;;24.55;13.85;;;;;;;;;;5030078;28;20033;-67
2022/10/30 14:23:12;;;;;;;20.67;13.32;;;;;;;;;;5029168;28;20033;-67
2022/10/30 14:25:38;;;;;;;22.83;12.65;;;;;;;;;;5012335;28;20029;-68
2022/10/30 14:28:04;;;;;;;23.75;12.57;;;;;;;;;;5013188;28;20077;-67